Time;durP1;ratioP1;P1;durP2;ratioP2;P2;SDS_P1;SDS_P2;PMS_P1;PMS_P2;Temp;Humidity;BMP_temperature;BMP_pressure;BME280_temperature;BME280_humidity;BME280_pressure;Samples;Min_cycle;Max_cycle;Signal;HPM_P1;HPM_P2
2023/12/26 00:00:25;;;;;;;101.47;97.10;;;;;;;12.87;73.75;100529.31;5037599;28;20038;-70
2023/12/26 00:02:51;;;;;;;101.80;97.43;;;;;;;12.85;73.78;100532.31;5019065;28;20038;-71
2023/12/26 00:05:16;;;;;;;103.80;99.40;;;;;;;12.84;73.62;100538.78;5031292;28;20044;-71
2023/12/26 00:07:42;;;;;;;104.97;100.40;;;;;;;12.84;73.86;100537.97;5029640;28;20108;-71
2023/12/26 00:10:07;;;;;;;101.65;97.30;;;;;;;12.85;74.13;100529.59;5035462;28;20423;-72
2023/12/26 00:12:33;;;;;;;103.80;99.22;;;;;;;12.84;74.08;100522.53;5042651;28;20099;-69
2023/12/26 00:14:58;;;;;;;106.10;101.50;;;;;;;12.82;73.54;100523.88;5011982;28;20030;-71
2023/12/26 00:17:23;;;;;;;102.50;97.90;;;;;;;12.83;74.03;100529.03;5011949;28;20042;-70
2023/12/26 00:19:49;;;;;;;103.75;99.25;;;;;;;12.85;74.01;100523.34;5036941;28;20052;-71
2023/12/26 00:22:15;;;;;;;105.60;101.05;;;;;;;12.82;73.81;100534.72;5028793;28;20034;-70
2023/12/26 00:24:41;;;;;;;103.70;99.18;;;;;;;12.81;73.68;100523.06;5011145;28;20116;-68
2023/12/26 00:27:06;;;;;;;104.50;99.88;;;;;;;12.82;73.59;100524.66;5015287;28;20041;-71
2023/12/26 00:29:32;;;;;;;101.10;96.72;;;;;;;12.81;73.74;100542.03;5018107;28;20037;-70
2023/12/26 00:31:57;;;;;;;106.32;101.80;;;;;;;12.80;74.20;100548.53;5027393;28;20041;-70
2023/12/26 00:34:22;;;;;;;102.70;98.32;;;;;;;12.83;73.69;100541.78;5018588;28;20040;-71
2023/12/26 00:36:48;;;;;;;103.57;99.07;;;;;;;12.83;73.56;100539.06;5011574;28;20470;-70
2023/12/26 00:39:14;;;;;;;102.32;97.95;;;;;;;12.83;73.71;100539.06;5011780;28;20041;-70
2023/12/26 00:41:39;;;;;;;102.65;98.15;;;;;;;12.81;73.95;100542.03;5025788;28;20033;-70
2023/12/26 00:44:05;;;;;;;101.55;97.20;;;;;;;12.82;73.76;100543.66;5018523;28;20048;-70
2023/12/26 00:46:32;;;;;;;105.78;101.25;;;;;;;12.81;74.20;100544.75;5034580;28;20034;-70
2023/12/26 00:48:57;;;;;;;103.50;98.97;;;;;;;12.81;74.10;100550.16;5010854;28;20034;-70
2023/12/26 00:51:23;;;;;;;104.60;100.10;;;;;;;12.84;74.18;100549.63;5030888;28;20040;-69
2023/12/26 00:53:48;;;;;;;105.70;100.90;;;;;;;12.86;74.15;100549.38;5016792;28;20043;-70
2023/12/26 00:56:14;;;;;;;102.10;97.70;;;;;;;12.85;73.98;100545.84;5035134;28;20127;-71
2023/12/26 00:58:40;;;;;;;105.28;100.65;;;;;;;12.86;73.89;100552.91;5015305;28;20048;-71
2023/12/26 01:01:05;;;;;;;107.95;103.35;;;;;;;12.86;73.76;100566.44;5034675;28;20535;-70
2023/12/26 01:03:30;;;;;;;101.43;97.07;;;;;;;12.85;73.74;100545.00;5029858;28;20072;-71
2023/12/26 01:05:56;;;;;;;105.03;100.53;;;;;;;12.83;74.06;100553.44;5024160;28;20116;-71
2023/12/26 01:08:21;;;;;;;103.88;99.45;;;;;;;12.82;74.17;100553.69;5030717;28;20037;-71
2023/12/26 01:10:47;;;;;;;107.80;103.10;;;;;;;12.84;74.24;100560.47;5030239;28;20370;-72
2023/12/26 01:13:13;;;;;;;100.72;96.38;;;;;;;12.83;73.96;100566.97;5028179;28;20034;-71
2023/12/26 01:15:39;;;;;;;104.38;99.85;;;;;;;12.82;73.00;100562.63;5021707;28;20657;-71
2023/12/26 01:18:05;;;;;;;101.35;96.95;;;;;;;12.81;74.14;100565.63;5014477;28;20117;-70
2023/12/26 01:20:31;;;;;;;104.07;99.65;;;;;;;12.82;73.89;100569.94;5024469;28;20037;-71
2023/12/26 01:22:56;;;;;;;105.57;101.07;;;;;;;12.82;73.87;100569.94;5049868;28;20064;-71
2023/12/26 01:25:22;;;;;;;106.90;102.35;;;;;;;12.82;73.96;100567.22;5032965;28;20450;-70
2023/12/26 01:27:47;;;;;;;101.22;96.80;;;;;;;12.82;73.74;100572.66;5014349;28;20525;-71
2023/12/26 01:30:13;;;;;;;108.70;104.03;;;;;;;12.81;74.04;100566.41;5013906;28;20046;-71
2023/12/26 01:32:39;;;;;;;104.93;100.45;;;;;;;12.81;74.14;100573.75;5022231;28;20046;-73
2023/12/26 01:35:05;;;;;;;101.25;96.88;;;;;;;12.81;74.25;100579.16;5020901;28;20033;-71
2023/12/26 01:37:30;;;;;;;101.80;97.43;;;;;;;12.81;73.91;100576.44;5028898;28;20505;-70
2023/12/26 01:39:56;;;;;;;106.65;101.93;;;;;;;12.80;74.10;100585.66;5013941;28;20036;-70
2023/12/26 01:42:22;;;;;;;98.97;94.65;;;;;;;12.77;74.08;100585.13;5032322;28;20179;-69
2023/12/26 01:44:47;;;;;;;105.53;100.72;;;;;;;12.76;74.21;100597.00;5028679;28;20069;-70
2023/12/26 01:47:13;;;;;;;101.93;97.55;;;;;;;12.77;73.98;100592.41;5014689;28;20042;-70
2023/12/26 01:49:40;;;;;;;104.40;99.93;;;;;;;12.77;73.76;100589.69;5018409;28;20158;-70
2023/12/26 01:52:09;;;;;;;103.22;98.68;;;;;;;12.77;73.96;100590.53;5027021;28;20164;-69
2023/12/26 01:54:37;;;;;;;102.97;98.57;;;;;;;12.80;74.30;100591.06;5021644;28;20103;-70
2023/12/26 01:57:06;;;;;;;99.43;94.82;;;;;;;12.82;73.97;100594.34;5024125;28;20459;-71
2023/12/26 01:59:35;;;;;;;103.43;98.93;;;;;;;12.83;74.44;100591.38;5013974;28;20025;-71
2023/12/26 02:02:01;;;;;;;105.43;100.88;;;;;;;12.82;74.04;100611.41;5029138;28;20058;-70
2023/12/26 02:04:26;;;;;;;104.18;99.60;;;;;;;12.81;74.13;100595.44;5029240;28;20130;-70
2023/12/26 02:06:52;;;;;;;101.50;97.10;;;;;;;12.82;73.78;100605.19;5048458;28;20076;-71
2023/12/26 02:09:17;;;;;;;102.22;97.82;;;;;;;12.82;73.97;100610.59;5038423;28;20079;-70
2023/12/26 02:11:43;;;;;;;102.47;98.10;;;;;;;12.83;74.22;100612.25;5013050;28;20037;-71
2023/12/26 02:14:09;;;;;;;104.93;100.22;;;;;;;12.83;73.93;100606.84;5018070;28;20384;-71
2023/12/26 02:16:37;;;;;;;104.88;100.38;;;;;;;12.83;73.96;100606.84;5036262;28;20048;-70
2023/12/26 02:19:03;;;;;;;107.18;102.47;;;;;;;12.83;74.19;100614.97;5034326;28;20507;-70
2023/12/26 02:21:29;;;;;;;103.95;99.53;;;;;;;12.84;74.29;100622.00;5013753;28;20037;-70
2023/12/26 02:23:55;;;;;;;106.55;101.78;;;;;;;12.87;74.19;100618.78;5013118;28;20041;-70
2023/12/26 02:26:27;;;;;;;103.65;99.18;;;;;;;12.86;74.23;100620.66;5045948;28;20040;-72
2023/12/26 02:28:53;;;;;;;106.75;101.95;;;;;;;12.85;74.25;100629.06;5021563;28;20030;-71
2023/12/26 02:31:20;;;;;;;107.45;102.85;;;;;;;12.85;73.90;100629.88;5014338;28;20038;-69
2023/12/26 02:33:47;;;;;;;104.90;100.30;;;;;;;12.82;73.74;100629.56;5040897;28;20469;-70
2023/12/26 02:36:13;;;;;;;103.07;98.50;;;;;;;12.80;74.14;100623.59;5034559;28;20044;-71
2023/12/26 02:38:39;;;;;;;102.68;98.18;;;;;;;12.78;74.30;100627.38;5017429;28;20433;-71
2023/12/26 02:41:05;;;;;;;102.70;98.28;;;;;;;12.78;74.30;100634.72;5036542;28;20045;-72
2023/12/26 02:43:32;;;;;;;103.43;98.97;;;;;;;12.80;74.07;100635.28;5035463;28;20076;-70
2023/12/26 02:45:58;;;;;;;105.57;101.00;;;;;;;12.79;74.12;100630.91;5028203;28;20099;-69
2023/12/26 02:48:23;;;;;;;102.90;98.45;;;;;;;12.81;74.21;100646.94;5013255;28;20455;-70
2023/12/26 02:50:49;;;;;;;101.07;96.57;;;;;;;12.83;73.95;100645.59;5027858;28;20036;-70
2023/12/26 02:53:14;;;;;;;104.63;100.10;;;;;;;12.82;74.05;100662.91;5017942;28;20046;-71
2023/12/26 02:55:40;;;;;;;102.90;98.45;;;;;;;12.80;73.95;100667.81;5012393;28;20166;-72
2023/12/26 02:58:05;;;;;;;106.45;101.85;;;;;;;12.77;74.07;100660.16;5035759;28;20568;-70
2023/12/26 03:00:31;;;;;;;105.05;100.38;;;;;;;12.75;74.27;100656.88;5014451;28;20045;-70
2023/12/26 03:02:57;;;;;;;105.20;100.50;;;;;;;12.74;74.35;100657.97;5026450;28;20375;-69
2023/12/26 03:05:23;;;;;;;103.97;99.38;;;;;;;12.73;74.50;100654.47;5025374;28;20508;-69
2023/12/26 03:07:49;;;;;;;109.65;104.95;;;;;;;12.72;74.01;100647.38;5026789;28;20041;-71
2023/12/26 03:10:14;;;;;;;106.05;101.47;;;;;;;12.71;74.04;100656.59;5011596;28;20056;-69
2023/12/26 03:12:40;;;;;;;103.03;98.60;;;;;;;12.72;74.35;100663.66;5047181;28;20539;-72
2023/12/26 03:15:06;;;;;;;103.30;98.70;;;;;;;12.72;74.28;100662.84;5012866;28;20048;-69
2023/12/26 03:17:31;;;;;;;101.68;97.28;;;;;;;12.73;74.45;100670.72;5020839;28;20038;-70
2023/12/26 03:19:57;;;;;;;106.18;101.38;;;;;;;12.74;74.64;100671.53;5018323;28;20055;-69
2023/12/26 03:22:22;;;;;;;102.60;98.13;;;;;;;12.74;74.50;100669.63;5016170;28;20039;-70
2023/12/26 03:24:47;;;;;;;105.57;101.05;;;;;;;12.74;74.00;100676.94;5031908;28;20037;-69
2023/12/26 03:27:14;;;;;;;101.90;97.13;;;;;;;12.75;74.27;100678.56;5035877;28;20041;-71
2023/12/26 03:29:40;;;;;;;97.95;93.72;;;;;;;12.74;73.96;100676.94;5036756;28;20034;-68
2023/12/26 03:32:08;;;;;;;102.10;97.53;;;;;;;12.73;73.97;100692.41;5012032;28;20028;-70
2023/12/26 03:34:33;;;;;;;98.22;94.03;;;;;;;12.73;74.13;100689.69;5012622;28;20033;-70
2023/12/26 03:36:59;;;;;;;101.30;96.80;;;;;;;12.76;74.57;100696.50;5020771;28;20039;-70
2023/12/26 03:39:24;;;;;;;96.43;92.20;;;;;;;12.77;74.21;100692.69;5028707;28;20038;-70
2023/12/26 03:41:50;;;;;;;98.60;94.30;;;;;;;12.78;74.13;100702.47;5023460;28;20119;-69
2023/12/26 03:44:16;;;;;;;98.22;93.53;;;;;;;12.78;74.42;100694.34;5010438;28;20034;-71
2023/12/26 03:46:42;;;;;;;98.85;94.60;;;;;;;12.74;73.86;100704.88;5012079;28;20048;-70
2023/12/26 03:49:07;;;;;;;99.88;95.47;;;;;;;12.73;73.72;100705.94;5041712;28;20043;-69
2023/12/26 03:51:33;;;;;;;100.45;95.90;;;;;;;12.71;74.00;100705.38;5012088;28;20514;-69
2023/12/26 03:53:59;;;;;;;99.63;95.10;;;;;;;12.70;73.80;100702.91;5006449;28;20076;-70
2023/12/26 03:56:30;;;;;;;95.90;91.65;;;;;;;12.69;74.12;100699.41;5039144;28;20111;-71
2023/12/26 03:58:55;;;;;;;98.95;94.57;;;;;;;12.68;73.67;100707.81;5026313;28;20491;-70
2023/12/26 04:01:21;;;;;;;103.63;99.07;;;;;;;12.68;73.57;100724.06;5029233;28;20600;-68
2023/12/26 04:03:46;;;;;;;97.80;93.57;;;;;;;12.65;73.97;100719.13;5027288;28;20129;-69
2023/12/26 04:06:12;;;;;;;101.85;97.05;;;;;;;12.66;74.15;100727.03;5016013;28;20311;-70
2023/12/26 04:08:37;;;;;;;98.50;94.10;;;;;;;12.66;74.00;100724.31;5026735;28;20038;-70
2023/12/26 04:11:03;;;;;;;99.90;95.50;;;;;;;12.66;74.19;100731.63;5027475;28;20080;-70
2023/12/26 04:13:29;;;;;;;98.85;94.60;;;;;;;12.67;73.72;100733.25;5011852;28;20446;-71
2023/12/26 04:15:55;;;;;;;98.38;94.13;;;;;;;12.67;74.06;100734.06;5011386;28;20045;-69
2023/12/26 04:18:20;;;;;;;97.22;92.45;;;;;;;12.66;73.84;100742.47;5026577;28;20030;-69
2023/12/26 04:20:46;;;;;;;98.80;94.28;;;;;;;12.65;74.00;100746.25;5034943;28;20484;-70
2023/12/26 04:23:11;;;;;;;97.57;93.25;;;;;;;12.63;73.56;100756.53;5011455;28;20044;-70
2023/12/26 04:25:36;;;;;;;100.32;95.93;;;;;;;12.62;73.70;100754.88;5011704;28;20040;-70
2023/12/26 04:28:02;;;;;;;98.07;93.82;;;;;;;12.63;74.07;100767.38;5036038;28;20051;-68
2023/12/26 04:30:27;;;;;;;100.68;95.68;;;;;;;12.62;73.41;100769.25;5027101;28;20054;-70
2023/12/26 04:32:53;;;;;;;100.05;95.70;;;;;;;12.64;73.98;100774.44;5020046;28;20076;-71
2023/12/26 04:35:18;;;;;;;97.22;92.82;;;;;;;12.61;73.92;100767.63;5011763;28;20037;-70
2023/12/26 04:37:44;;;;;;;100.80;96.38;;;;;;;12.61;73.81;100764.91;5024219;28;20029;-68
2023/12/26 04:40:09;;;;;;;98.95;94.63;;;;;;;12.61;73.18;100780.34;5031185;28;20038;-70
2023/12/26 04:42:35;;;;;;;100.05;95.65;;;;;;;12.60;73.97;100789.53;5022832;28;20083;-71
2023/12/26 04:45:01;;;;;;;99.07;94.50;;;;;;;12.59;73.60;100786.03;5024741;28;20389;-71
2023/12/26 04:47:28;;;;;;;99.38;95.13;;;;;;;12.59;73.78;100790.63;5018820;28;20493;-69
2023/12/26 04:49:53;;;;;;;101.80;97.35;;;;;;;12.60;73.74;100797.69;5011417;28;20117;-71
2023/12/26 04:52:19;;;;;;;98.63;94.40;;;;;;;12.60;73.53;100798.53;5041694;28;20454;-70
2023/12/26 04:54:44;;;;;;;100.95;96.45;;;;;;;12.58;73.75;100794.44;5034761;28;20524;-70
2023/12/26 04:57:11;;;;;;;101.70;96.95;;;;;;;12.58;73.43;100797.94;5021994;28;20099;-70
2023/12/26 04:59:39;;;;;;;97.32;92.88;;;;;;;12.54;73.25;100808.47;5015356;28;20065;-70
2023/12/26 05:02:05;;;;;;;95.85;91.45;;;;;;;12.49;72.93;100808.41;5023602;28;20041;-68
2023/12/26 05:04:30;;;;;;;99.10;94.80;;;;;;;12.46;72.75;100813.53;5051058;28;20059;-68
2023/12/26 05:06:56;;;;;;;96.63;92.32;;;;;;;12.46;73.73;100827.88;5023191;28;20363;-68
2023/12/26 05:09:21;;;;;;;99.57;95.18;;;;;;;12.44;73.40;100811.06;5014760;28;20033;-68
2023/12/26 05:11:47;;;;;;;100.75;95.85;;;;;;;12.45;73.44;100826.25;5015250;28;20462;-70
2023/12/26 05:14:12;;;;;;;99.20;94.85;;;;;;;12.45;73.28;100839.00;5042642;28;20539;-68
2023/12/26 05:16:42;;;;;;;98.63;94.40;;;;;;;12.45;73.30;100834.38;5040706;28;20091;-69
2023/12/26 05:19:08;;;;;;;97.22;92.93;;;;;;;12.43;73.14;100841.94;5029183;28;20115;-69
2023/12/26 05:21:35;;;;;;;98.97;94.38;;;;;;;12.42;73.43;100843.00;5015723;28;20042;-68
2023/12/26 05:24:00;;;;;;;96.72;92.53;;;;;;;12.43;73.15;100847.34;5022103;28;20092;-71
2023/12/26 05:26:26;;;;;;;102.20;96.65;;;;;;;12.41;73.28;100846.78;5031344;28;20410;-68
2023/12/26 05:28:51;;;;;;;98.93;94.63;;;;;;;12.42;73.53;100853.00;5013240;28;20038;-68
2023/12/26 05:31:20;;;;;;;96.55;92.28;;;;;;;12.42;73.10;100861.16;5014278;28;20156;-70
2023/12/26 05:33:46;;;;;;;;;;;;;;;12.40;72.76;100869.53;5043144;28;20044;-68
2023/12/26 05:36:11;;;;;;;95.07;90.88;;;;;;;12.39;72.85;100864.38;5023519;28;19917;-68
2023/12/26 05:38:37;;;;;;;94.47;90.07;;;;;;;12.37;73.26;100880.84;5014533;28;20041;-68
2023/12/26 05:41:04;;;;;;;95.05;90.60;;;;;;;12.36;72.98;100887.34;5014291;28;20030;-68
2023/12/26 05:43:29;;;;;;;94.40;90.30;;;;;;;12.35;72.79;100901.97;5032207;28;20090;-68
2023/12/26 05:45:55;;;;;;;94.93;90.70;;;;;;;12.34;73.10;100901.13;5023042;28;20041;-69
2023/12/26 05:48:20;;;;;;;93.22;89.10;;;;;;;12.36;73.54;100908.22;5013851;28;20030;-69
2023/12/26 05:50:46;;;;;;;93.65;89.63;;;;;;;12.37;73.07;100915.25;5018731;28;20037;-69
2023/12/26 05:53:11;;;;;;;98.78;94.28;;;;;;;12.36;72.56;100921.75;5013576;28;20092;-68
2023/12/26 05:55:37;;;;;;;93.78;89.38;;;;;;;12.34;72.81;100922.81;5019309;28;20050;-68
2023/12/26 05:58:02;;;;;;;94.80;90.72;;;;;;;12.32;72.75;100924.97;5020973;28;20040;-69
2023/12/26 06:00:28;;;;;;;98.47;94.25;;;;;;;12.32;72.69;100916.84;5013526;28;20540;-69
2023/12/26 06:02:53;;;;;;;96.30;91.88;;;;;;;12.33;73.25;100921.19;5013472;28;20540;-69
2023/12/26 06:05:19;;;;;;;98.72;94.22;;;;;;;12.34;72.70;100924.69;5024613;28;20037;-70
2023/12/26 06:07:44;;;;;;;91.38;87.43;;;;;;;12.33;72.86;100939.31;5025258;28;20038;-68
2023/12/26 06:10:09;;;;;;;99.32;94.82;;;;;;;12.33;73.00;100955.59;5046900;28;20041;-69
2023/12/26 06:12:35;;;;;;;97.47;92.88;;;;;;;12.34;73.10;100949.09;5014011;28;20117;-69
2023/12/26 06:15:01;;;;;;;97.95;93.70;;;;;;;12.36;73.38;100957.78;5018334;28;20104;-68
2023/12/26 06:17:26;;;;;;;97.55;93.35;;;;;;;12.38;73.03;100962.97;5014918;28;20036;-68
2023/12/26 06:19:52;;;;;;;98.47;93.93;;;;;;;12.37;72.82;100970.25;5033453;28;20036;-68
2023/12/26 06:22:18;;;;;;;99.15;94.78;;;;;;;12.37;72.86;100962.13;5031876;28;20041;-68
2023/12/26 06:24:43;;;;;;;101.30;96.95;;;;;;;12.35;72.78;100969.69;5040935;28;20389;-69
2023/12/26 06:27:09;;;;;;;100.70;95.97;;;;;;;12.34;73.03;100976.97;5025150;28;20540;-69
2023/12/26 06:29:34;;;;;;;97.38;93.18;;;;;;;12.33;72.92;100975.34;5013198;28;20114;-69
2023/12/26 06:31:59;;;;;;;98.57;94.00;;;;;;;12.33;72.87;100982.66;5013772;28;20057;-68
2023/12/26 06:34:25;;;;;;;100.00;95.60;;;;;;;12.32;72.52;100989.13;5017066;28;20033;-69
2023/12/26 06:36:50;;;;;;;102.22;97.88;;;;;;;12.32;72.83;101006.22;5049038;28;20037;-68
2023/12/26 06:39:16;;;;;;;99.85;95.43;;;;;;;12.33;73.12;100996.22;5039321;28;20045;-68
2023/12/26 06:41:44;;;;;;;94.82;90.63;;;;;;;12.35;73.06;100996.78;5013284;28;20033;-68
2023/12/26 06:44:12;;;;;;;102.38;97.72;;;;;;;12.32;72.99;100997.25;5017073;28;20038;-68
2023/12/26 06:46:41;;;;;;;98.00;93.60;;;;;;;12.31;73.33;101001.88;5034852;28;20406;-68
2023/12/26 06:49:07;;;;;;;95.97;91.82;;;;;;;12.31;72.92;101009.19;5012668;28;20382;-68
2023/12/26 06:51:32;;;;;;;95.95;91.80;;;;;;;12.28;72.96;100999.66;5011422;28;20033;-69
2023/12/26 06:53:58;;;;;;;100.47;96.03;;;;;;;12.28;73.32;101009.69;5047095;28;20473;-68
2023/12/26 06:56:23;;;;;;;98.28;93.40;;;;;;;12.30;73.30;101010.25;5021795;28;20045;-68
2023/12/26 06:58:48;;;;;;;90.53;86.60;;;;;;;12.28;72.71;101004.25;5017915;28;20037;-68
2023/12/26 07:01:15;;;;;;;98.68;94.10;;;;;;;12.26;73.02;101004.50;5012395;28;20030;-69
2023/12/26 07:03:41;;;;;;;100.88;95.97;;;;;;;12.25;72.98;101008.28;5040478;28;20163;-71
2023/12/26 07:06:06;;;;;;;98.15;93.95;;;;;;;12.26;73.17;101017.22;5042955;28;20029;-68
2023/12/26 07:08:32;;;;;;;98.53;94.13;;;;;;;12.25;72.68;101023.72;5029679;28;20058;-69
2023/12/26 07:10:57;;;;;;;96.47;92.28;;;;;;;12.25;73.04;101029.13;5012716;28;20113;-68
2023/12/26 07:13:23;;;;;;;93.53;88.80;;;;;;;12.24;73.27;101035.59;5016130;28;20030;-68
2023/12/26 07:15:51;;;;;;;93.53;89.20;;;;;;;12.24;72.91;101031.00;5023406;28;20029;-68
2023/12/26 07:18:17;;;;;;;96.97;91.10;;;;;;;12.24;73.14;101039.13;5021020;28;20371;-68
2023/12/26 07:20:42;;;;;;;93.78;89.72;;;;;;;12.24;72.92;101049.16;5025509;28;20032;-68
2023/12/26 07:23:08;;;;;;;91.82;87.82;;;;;;;12.22;72.91;101060.25;5036472;28;20045;-68
2023/12/26 07:25:33;;;;;;;93.88;89.68;;;;;;;12.21;73.12;101072.13;5012398;28;20038;-69
2023/12/26 07:27:58;;;;;;;94.05;89.95;;;;;;;12.21;72.99;101074.84;5028307;28;20029;-69
2023/12/26 07:30:24;;;;;;;98.07;93.60;;;;;;;12.21;73.17;101068.59;5029770;28;20036;-68
2023/12/26 07:32:49;;;;;;;92.25;88.25;;;;;;;12.20;73.17;101073.22;5018842;28;20030;-69
2023/12/26 07:35:15;;;;;;;90.38;86.47;;;;;;;12.20;72.90;101077.81;5012092;28;20042;-69
2023/12/26 07:37:40;;;;;;;93.97;88.53;;;;;;;12.18;72.63;101083.44;5035556;28;20055;-67
2023/12/26 07:40:06;;;;;;;90.50;86.40;;;;;;;12.17;72.62;101097.22;5030404;28;20038;-69
2023/12/26 07:42:31;;;;;;;93.15;88.95;;;;;;;12.15;72.81;101094.78;5038891;28;20037;-69
2023/12/26 07:44:57;;;;;;;91.90;87.93;;;;;;;12.13;72.96;101102.31;5036676;28;20393;-69
2023/12/26 07:47:22;;;;;;;93.05;89.00;;;;;;;12.13;73.10;101113.16;5032283;28;20037;-68
2023/12/26 07:49:48;;;;;;;92.93;88.78;;;;;;;12.11;72.82;101104.44;5030551;28;20095;-69
2023/12/26 07:52:14;;;;;;;95.82;90.85;;;;;;;12.10;72.65;101119.88;5024809;28;20359;-71
2023/12/26 07:54:39;;;;;;;97.85;92.57;;;;;;;12.08;72.56;101127.41;5011355;28;20529;-70
2023/12/26 07:57:05;;;;;;;94.60;90.43;;;;;;;12.05;72.66;101127.91;5031020;28;20141;-68
2023/12/26 07:59:30;;;;;;;92.00;87.53;;;;;;;12.03;72.71;101123.81;5013021;28;20064;-69
2023/12/26 08:01:56;;;;;;;93.05;88.75;;;;;;;12.01;72.90;101140.28;5029854;28;20040;-70
2023/12/26 08:04:22;;;;;;;92.57;88.53;;;;;;;12.00;72.67;101144.06;5028890;28;20113;-69
2023/12/26 08:06:48;;;;;;;90.22;86.13;;;;;;;11.98;72.29;101145.38;5030147;28;20474;-68
2023/12/26 08:09:13;;;;;;;89.85;85.97;;;;;;;11.96;72.90;101155.63;5028158;28;20042;-69
2023/12/26 08:11:39;;;;;;;93.28;88.88;;;;;;;11.94;72.64;101155.03;5028724;28;20037;-69
2023/12/26 08:14:04;;;;;;;86.55;82.80;;;;;;;11.94;72.62;101160.44;5018054;28;20390;-68
2023/12/26 08:16:30;;;;;;;97.57;93.28;;;;;;;11.90;72.06;101169.06;5035033;28;20072;-70
2023/12/26 08:18:57;;;;;;;84.60;80.78;;;;;;;11.86;72.06;101170.59;5024756;28;20039;-69
2023/12/26 08:21:22;;;;;;;89.63;85.68;;;;;;;11.83;72.28;101175.63;5029722;28;20523;-69
2023/12/26 08:23:48;;;;;;;88.70;84.45;;;;;;;11.80;71.98;101181.53;5030514;28;20038;-70
2023/12/26 08:26:13;;;;;;;88.82;84.65;;;;;;;11.75;72.10;101181.44;5034198;28;20033;-68
2023/12/26 08:28:39;;;;;;;85.22;81.10;;;;;;;11.71;72.24;101175.66;5033372;28;20048;-69
2023/12/26 08:31:04;;;;;;;84.57;80.38;;;;;;;11.70;71.90;101187.56;5034511;28;20034;-69
2023/12/26 08:33:31;;;;;;;89.43;85.43;;;;;;;11.67;72.09;101185.34;5015354;28;20034;-71
2023/12/26 08:35:57;;;;;;;85.72;81.95;;;;;;;11.65;72.33;101193.69;5027038;28;20030;-68
2023/12/26 08:38:23;;;;;;;85.90;82.15;;;;;;;11.62;72.14;101202.28;5034640;28;20078;-69
2023/12/26 08:40:49;;;;;;;84.68;80.43;;;;;;;11.61;72.21;101200.63;5046869;28;20450;-69
2023/12/26 08:43:14;;;;;;;87.22;82.82;;;;;;;11.61;72.68;101192.50;5015598;28;20518;-68
2023/12/26 08:45:40;;;;;;;84.65;80.82;;;;;;;11.60;72.00;101207.09;5032821;28;20068;-68
2023/12/26 08:48:06;;;;;;;86.85;82.00;;;;;;;11.59;72.39;101213.59;5034240;28;20037;-68
2023/12/26 08:50:32;;;;;;;85.90;82.00;;;;;;;11.60;71.97;101222.53;5033502;28;20029;-69
2023/12/26 08:52:57;;;;;;;91.43;86.90;;;;;;;11.60;72.17;101238.75;5033232;28;20480;-69
2023/12/26 08:55:23;;;;;;;85.03;80.35;;;;;;;11.61;72.31;101224.16;5031608;28;20037;-69
2023/12/26 08:57:48;;;;;;;83.55;79.93;;;;;;;11.60;72.43;101228.75;5019062;28;20041;-71
2023/12/26 09:00:14;;;;;;;88.70;84.68;;;;;;;11.60;72.11;101228.75;5021718;28;20408;-69
2023/12/26 09:02:44;;;;;;;85.60;81.45;;;;;;;11.61;72.31;101238.50;5028395;28;20038;-68
2023/12/26 09:05:11;;;;;;;84.82;80.82;;;;;;;11.61;72.28;101229.56;5029906;28;20113;-68
2023/12/26 09:07:37;;;;;;;90.63;86.07;;;;;;;11.60;72.50;101228.75;5030646;28;20079;-69
2023/12/26 09:10:02;;;;;;;88.63;83.82;;;;;;;11.60;72.25;101241.47;5027117;28;20481;-69
2023/12/26 09:12:28;;;;;;;85.75;81.82;;;;;;;11.59;72.00;101235.25;5028316;28;20037;-68
2023/12/26 09:14:53;;;;;;;86.30;82.50;;;;;;;11.57;71.99;101242.78;5014739;28;20481;-68
2023/12/26 09:17:19;;;;;;;85.32;80.78;;;;;;;11.59;72.42;101256.03;5020986;28;20465;-68
2023/12/26 09:19:44;;;;;;;87.18;83.22;;;;;;;11.59;72.15;101258.75;5024002;28;20488;-69
2023/12/26 09:22:10;;;;;;;92.15;87.32;;;;;;;11.58;72.40;101266.03;5016891;28;20045;-67
2023/12/26 09:24:35;;;;;;;89.90;85.38;;;;;;;11.58;72.42;101279.56;5014678;28;20068;-68
2023/12/26 09:27:00;;;;;;;90.07;85.88;;;;;;;11.57;71.86;101275.22;5029983;28;20040;-68
2023/12/26 09:29:26;;;;;;;88.35;84.10;;;;;;;11.57;71.91;101282.53;5032988;28;20455;-71
2023/12/26 09:31:53;;;;;;;89.53;85.45;;;;;;;11.54;71.60;101291.94;5029870;28;20067;-69
2023/12/26 09:34:18;;;;;;;85.22;81.07;;;;;;;11.52;71.46;101304.06;5014591;28;20041;-68
2023/12/26 09:36:44;;;;;;;87.30;83.40;;;;;;;11.49;71.19;101308.06;5021488;28;20038;-67
2023/12/26 09:39:09;;;;;;;87.25;82.72;;;;;;;11.47;71.66;101305.56;5031395;28;20041;-68
2023/12/26 09:41:35;;;;;;;85.40;80.85;;;;;;;11.47;71.88;101312.88;5032188;28;20033;-69
2023/12/26 09:44:00;;;;;;;84.93;81.00;;;;;;;11.48;72.00;101307.22;5033213;28;20065;-69
2023/12/26 09:46:26;;;;;;;84.68;80.95;;;;;;;11.48;71.92;101318.03;5034654;28;20405;-69
2023/12/26 09:48:51;;;;;;;88.35;83.82;;;;;;;11.48;72.07;101317.22;5027614;28;20135;-68
2023/12/26 09:51:23;;;;;;;91.13;87.03;;;;;;;11.49;71.64;101321.59;5035310;28;20483;-68
2023/12/26 09:53:57;;;;;;;90.72;85.75;;;;;;;11.49;71.86;101332.41;5019516;28;20030;-68
2023/12/26 09:56:25;;;;;;;87.45;83.05;;;;;;;11.48;72.31;101341.56;5026793;28;20493;-68
2023/12/26 09:58:51;;;;;;;85.95;82.18;;;;;;;11.49;72.21;101335.13;5016710;28;20304;-70
2023/12/26 10:01:19;;;;;;;90.30;86.07;;;;;;;11.48;71.90;101346.97;5048676;28;20040;-71
2023/12/26 10:03:45;;;;;;;88.35;83.45;;;;;;;11.47;72.02;101356.97;5019721;28;20037;-68
2023/12/26 10:06:11;;;;;;;86.97;82.97;;;;;;;11.45;71.69;101369.09;5039398;28;20107;-67
2023/12/26 10:08:36;;;;;;;85.80;82.00;;;;;;;11.42;71.63;101377.69;5013902;28;20375;-68
2023/12/26 10:11:02;;;;;;;83.68;79.82;;;;;;;11.42;72.19;101380.38;5014010;28;20034;-68
2023/12/26 10:13:42;;;;;;;87.28;83.38;;;;;;;11.41;71.68;101386.84;5013828;28;20454;-68
2023/12/26 10:16:07;;;;;;;84.97;80.88;;;;;;;11.39;71.89;101387.09;5022652;28;20490;-68
2023/12/26 10:18:33;;;;;;;86.35;82.05;;;;;;;11.38;71.75;101390.00;5027215;28;20041;-71
2023/12/26 10:20:58;;;;;;;85.75;81.40;;;;;;;11.37;71.75;101397.31;5051575;28;20030;-68
2023/12/26 10:23:24;;;;;;;83.00;78.93;;;;;;;11.37;71.76;101389.19;5013668;28;20060;-67
2023/12/26 10:25:49;;;;;;;88.88;84.28;;;;;;;11.38;72.01;101395.41;5040164;28;20423;-67
2023/12/26 10:28:16;;;;;;;85.35;81.63;;;;;;;11.37;71.61;101396.50;5030798;28;20034;-68
2023/12/26 10:30:41;;;;;;;84.13;80.20;;;;;;;11.35;71.79;101393.19;5013341;28;20041;-69
2023/12/26 10:33:07;;;;;;;82.57;78.75;;;;;;;11.35;72.04;101390.47;5013480;28;20025;-68
2023/12/26 10:35:33;;;;;;;85.05;81.15;;;;;;;11.34;71.85;101383.41;5022544;28;20116;-68
2023/12/26 10:37:59;;;;;;;86.55;82.78;;;;;;;11.35;71.83;101385.06;5020170;28;20033;-70
2023/12/26 10:40:25;;;;;;;83.93;80.25;;;;;;;11.34;71.86;101381.53;5024197;28;20111;-68
2023/12/26 10:42:51;;;;;;;87.72;82.97;;;;;;;11.34;72.16;101378.00;5034291;28;20033;-68
2023/12/26 10:45:19;;;;;;;85.28;81.47;;;;;;;11.32;71.66;101380.94;5025356;28;20125;-66
2023/12/26 10:47:47;;;;;;;88.53;84.53;;;;;;;11.31;71.99;101381.16;5027641;28;20042;-67
2023/12/26 10:50:15;;;;;;;84.18;80.45;;;;;;;11.31;71.92;101400.91;5013322;28;20041;-68
2023/12/26 10:52:42;;;;;;;88.65;84.47;;;;;;;11.29;71.24;101394.94;5027644;28;20455;-68
2023/12/26 10:55:08;;;;;;;82.05;78.45;;;;;;;11.26;71.75;101403.50;5028099;28;20041;-68
2023/12/26 10:57:37;;;;;;;85.13;80.93;;;;;;;11.25;71.29;101404.56;5032300;28;20044;-68